Impacts METAR Board INFO
IDs:

KDTW - Detroit Metro/Wayne, MI, US

Updated at: 0720 UTC 13 Dec 2017
Potential Impact None Slight Moderate High
Time12/19Z 12/20Z 12/21Z 12/22Z 12/23Z 13/00Z 13/01Z 13/02Z 13/03Z 13/04Z 13/05Z 13/06Z 13/07Z
VIS10 10 10 10 10 10 10 10 10 10 10 10 10
CIG60 60 55 55 60 60 60 60 55 50 50 180 --
CoverBKNBKNBKNBKNBKNBKNBKNBKNBKNBKNOVCBKNSCT
FltCatVFRVFRVFRVFRVFRVFRVFRVFRVFRVFRVFRVFRVFR
WX--------------------------
WDir320310320310310300300270270260280270280
WSpd17 16 18 11 11 9 10 8 7 9 7 8 8
WGst27 29 23 -- -- -- -- -- -- -- -- -- --
Raw hourly METARs
KDTW 121853Z 32017G27KT 10SM SCT050 BKN060 M06/M16 A2985 RMK AO2 PK WND 31030/1840 SLP115 T10611156 $
KDTW 121953Z 31016G29KT 10SM SCT050 BKN060 M07/M16 A2986 RMK AO2 PK WND 34029/1947 SLP119 T10671156
KDTW 122053Z 32018G23KT 10SM BKN055 M07/M16 A2986 RMK AO2 PK WND 30026/2001 SLP121 T10671156 53005
KDTW 122153Z 31011KT 10SM BKN055 M07/M16 A2987 RMK AO2 PK WND 31026/2124 SLP125 T10721161
KDTW 122253Z 31011KT 10SM SCT045 BKN060 M07/M16 A2989 RMK AO2 SLP132 T10721156
KDTW 122353Z 30009KT 10SM BKN060 M08/M15 A2991 RMK AO2 SLP136 T10781150 11056 21078 53014
KDTW 130053Z 30010KT 10SM BKN060 M08/M15 A2991 RMK AO2 SLP139 T10781150
KDTW 130153Z 27008KT 10SM BKN060 M08/M14 A2990 RMK AO2 SLP136 T10831139
KDTW 130253Z 27007KT 10SM BKN055 M08/M13 A2990 RMK AO2 SLP134 T10831133 58003
KDTW 130353Z 26009KT 10SM BKN050 M08/M13 A2989 RMK AO2 SNB0258E07 SLP133 P0000 T10831133
KDTW 130453Z 28007KT 10SM OVC050 M08/M13 A2988 RMK AO2 SLP128 T10781133 400001089
KDTW 130553Z 27008KT 10SM SCT045 SCT095 BKN180 M09/M14 A2986 RMK AO2 SLP123 60000 T10891144 11078 21089 58011
KDTW 130653Z 28008KT 10SM FEW035 SCT075 SCT180 M09/M14 A2987 RMK AO2 SLP125 T10941144